Time;durP1;ratioP1;P1;durP2;ratioP2;P2;SDS_P1;SDS_P2;PMS_P1;PMS_P2;Temp;Humidity;BMP_temperature;BMP_pressure;BME280_temperature;BME280_humidity;BME280_pressure;Samples;Min_cycle;Max_cycle;Signal;HPM_P1;HPM_P2
2022/04/05 00:00:36;;;;;;;6.97;4.82;;;10.40;39.30;;;;;;2334483;53;21012;-66
2022/04/05 00:03:02;;;;;;;7.55;4.80;;;10.40;39.20;;;;;;2337317;53;20993;-66
2022/04/05 00:05:29;;;;;;;6.47;4.03;;;10.40;39.30;;;;;;2338453;54;21007;-66
2022/04/05 00:07:55;;;;;;;6.50;3.97;;;10.40;39.30;;;;;;2330120;54;21492;-66
2022/04/05 00:10:23;;;;;;;7.12;4.30;;;10.40;39.30;;;;;;2333986;53;20937;-66
2022/04/05 00:12:50;;;;;;;8.18;3.83;;;10.40;39.90;;;;;;2330527;54;21012;-66
2022/04/05 00:15:19;;;;;;;8.07;3.85;;;10.40;39.30;;;;;;2330433;54;20919;-66
2022/04/05 00:17:46;;;;;;;7.05;4.37;;;10.40;39.30;;;;;;2330121;54;20957;-66
2022/04/05 00:20:23;;;;;;;7.40;4.85;;;10.40;39.30;;;;;;2330278;54;22019;-66
2022/04/05 00:22:50;;;;;;;8.77;4.20;;;10.40;39.30;;;;;;2332825;53;20956;-66
2022/04/05 00:25:16;;;;;;;6.70;4.20;;;10.40;39.30;;;;;;2328744;54;21895;-66
2022/04/05 00:27:45;;;;;;;6.78;3.90;;;10.50;39.40;;;;;;2329533;54;21103;-66
2022/04/05 00:30:12;;;;;;;7.07;4.18;;;10.50;39.40;;;;;;2332031;53;20969;-66
2022/04/05 00:32:38;;;;;;;7.22;4.15;;;10.40;39.30;;;;;;2395594;53;20996;-66
2022/04/05 00:35:05;;;;;;;8.07;4.07;;;10.50;39.40;;;;;;2331272;53;20905;-66
2022/04/05 00:37:31;;;;;;;6.07;3.83;;;10.50;39.40;;;;;;2334324;53;21080;-66
2022/04/05 00:39:58;;;;;;;6.97;4.43;;;10.50;39.40;;;;;;2329597;53;20945;-67
2022/04/05 00:42:24;;;;;;;7.95;4.45;;;10.40;39.40;;;;;;2478377;53;20947;-66
2022/04/05 00:44:51;;;;;;;7.35;3.97;;;10.50;39.50;;;;;;2329583;54;20944;-66
2022/04/05 00:47:19;;;;;;;6.68;4.25;;;10.50;39.60;;;;;;2334389;54;20976;-66
2022/04/05 00:49:46;;;;;;;7.47;3.87;;;10.50;39.80;;;;;;2324069;53;20954;-66
2022/04/05 00:52:17;;;;;;;6.75;3.80;;;10.40;39.80;;;;;;2322138;53;20924;-66
2022/04/05 00:54:46;;;;;;;8.88;4.00;;;10.40;39.80;;;;;;2332855;53;20958;-66
2022/04/05 00:57:17;;;;;;;6.35;3.47;;;10.40;40.00;;;;;;2331872;53;22171;-66
2022/04/05 00:59:46;;;;;;;6.22;3.80;;;10.40;40.00;;;;;;2330383;54;20955;-66
2022/04/05 01:02:13;;;;;;;6.30;3.75;;;10.40;40.10;;;;;;2330707;54;20948;-66
2022/04/05 01:04:42;;;;;;;9.25;4.20;;;10.30;40.10;;;;;;2330863;54;20961;-66
2022/04/05 01:07:13;;;;;;;7.30;3.87;;;10.30;40.10;;;;;;2330461;54;21004;-67
2022/04/05 01:09:40;;;;;;;5.70;3.40;;;10.20;40.10;;;;;;2330687;54;20968;-66
2022/04/05 01:12:08;;;;;;;6.37;3.75;;;10.30;40.20;;;;;;2330659;54;20961;-67
2022/04/05 01:14:34;;;;;;;5.93;3.62;;;10.30;40.30;;;;;;2334118;53;20921;-66
2022/04/05 01:17:01;;;;;;;4.28;2.90;;;10.20;40.30;;;;;;2330346;53;20929;-66
2022/04/05 01:19:27;;;;;;;6.53;4.07;;;10.20;40.30;;;;;;2428480;53;20981;-66
2022/04/05 01:21:53;;;;;;;7.87;3.95;;;10.20;40.30;;;;;;2333047;53;20984;-66
2022/04/05 01:24:20;;;;;;;6.78;3.55;;;10.20;40.40;;;;;;2330611;54;20928;-66
2022/04/05 01:26:47;;;;;;;6.93;4.50;;;10.20;40.40;;;;;;2333306;53;21044;-66
2022/04/05 01:29:14;;;;;;;6.65;4.32;;;10.20;40.40;;;;;;2548362;53;20909;-66
2022/04/05 01:31:45;;;;;;;6.25;4.15;;;10.20;40.40;;;;;;2333458;53;20940;-66
2022/04/05 01:34:13;;;;;;;6.80;4.22;;;10.20;40.40;;;;;;2330168;53;20959;-66
2022/04/05 01:36:43;;;;;;;6.60;3.80;;;10.20;40.40;;;;;;2329945;54;20936;-66
2022/04/05 01:39:13;;;;;;;6.35;4.03;;;10.20;40.40;;;;;;2470593;53;21449;-66
2022/04/05 01:41:39;;;;;;;6.12;3.70;;;10.20;40.30;;;;;;2337994;54;21007;-66
2022/04/05 01:44:08;;;;;;;6.62;4.28;;;10.20;40.30;;;;;;2329528;53;20996;-66
2022/04/05 01:46:34;;;;;;;6.97;4.35;;;10.20;40.30;;;;;;2330804;54;20937;-66
2022/04/05 01:49:01;;;;;;;7.35;3.95;;;10.20;40.30;;;;;;2332880;53;20964;-66
2022/04/05 01:51:27;;;;;;;6.85;4.37;;;10.20;40.30;;;;;;2339140;53;21665;-66
2022/04/05 01:53:57;;;;;;;7.20;3.85;;;10.20;40.20;;;;;;2322943;53;21114;-66
2022/04/05 01:56:24;;;;;;;6.07;3.28;;;10.20;40.20;;;;;;2330592;54;20968;-66
2022/04/05 01:58:51;;;;;;;6.78;3.87;;;10.20;40.10;;;;;;2330804;54;20968;-66
2022/04/05 02:01:18;;;;;;;7.35;4.10;;;10.20;40.10;;;;;;2456240;53;21015;-66
2022/04/05 02:03:44;;;;;;;7.78;4.03;;;10.20;40.10;;;;;;2335888;53;21899;-66
2022/04/05 02:06:10;;;;;;;6.65;4.05;;;10.20;40.10;;;;;;2421935;53;21410;-66
2022/04/05 02:08:39;;;;;;;7.18;4.12;;;10.30;40.20;;;;;;2330238;53;20913;-66
2022/04/05 02:11:05;;;;;;;6.80;3.97;;;10.30;40.10;;;;;;2334431;53;20969;-66
2022/04/05 02:13:33;;;;;;;6.68;3.90;;;10.20;40.00;;;;;;2557611;52;22072;-66
2022/04/05 02:16:03;;;;;;;6.65;3.85;;;10.30;40.10;;;;;;2565698;52;21052;-66
2022/04/05 02:18:29;;;;;;;5.95;3.78;;;10.30;40.20;;;;;;2329891;53;20968;-67
2022/04/05 02:20:56;;;;;;;5.87;4.05;;;10.30;40.20;;;;;;2330381;54;20965;-66
2022/04/05 02:23:23;;;;;;;6.95;4.53;;;10.30;40.20;;;;;;2329878;54;20920;-66
2022/04/05 02:25:49;;;;;;;8.57;5.05;;;10.20;40.00;;;;;;2333761;53;20928;-67
2022/04/05 02:28:16;;;;;;;7.32;4.20;;;10.30;40.00;;;;;;2333024;53;21419;-66
2022/04/05 02:30:42;;;;;;;6.85;4.20;;;10.30;40.00;;;;;;2332755;53;21039;-66
2022/04/05 02:33:10;;;;;;;6.47;4.40;;;10.30;40.00;;;;;;2328783;53;21122;-67
2022/04/05 02:35:37;;;;;;;6.90;4.30;;;10.30;40.00;;;;;;2325565;53;22077;-66
2022/04/05 02:38:04;;;;;;;7.30;4.57;;;10.30;39.90;;;;;;2330981;53;21012;-66
2022/04/05 02:40:33;;;;;;;8.52;4.20;;;10.30;39.90;;;;;;2572937;53;20940;-66
2022/04/05 02:42:59;;;;;;;8.18;4.10;;;10.30;39.80;;;;;;2344812;53;21060;-66
2022/04/05 02:45:26;;;;;;;7.00;4.45;;;10.30;39.80;;;;;;2328419;53;20956;-66
2022/04/05 02:47:52;;;;;;;8.00;4.57;;;10.30;39.80;;;;;;2329659;54;20925;-66
2022/04/05 02:50:18;;;;;;;7.37;4.43;;;10.30;39.80;;;;;;2330131;54;21393;-66
2022/04/05 02:52:47;;;;;;;8.07;4.43;;;10.30;39.80;;;;;;2334046;53;21012;-66
2022/04/05 02:55:15;;;;;;;8.18;4.45;;;10.30;39.80;;;;;;2548539;53;21019;-66
2022/04/05 02:57:41;;;;;;;7.62;5.00;;;10.30;39.70;;;;;;2330534;54;20944;-66
2022/04/05 03:00:11;;;;;;;6.57;4.15;;;10.30;39.70;;;;;;2464941;53;21055;-66
2022/04/05 03:02:37;;;;;;;6.95;3.97;;;10.30;39.70;;;;;;2330527;54;20980;-66
2022/04/05 03:05:07;;;;;;;6.85;3.92;;;10.30;40.40;;;;;;2575183;53;22044;-66
2022/04/05 03:07:34;;;;;;;6.45;4.10;;;10.30;39.80;;;;;;2330471;54;20956;-66
2022/04/05 03:10:01;;;;;;;7.60;4.50;;;10.30;39.70;;;;;;2330497;54;20936;-66
2022/04/05 03:12:30;;;;;;;8.57;4.72;;;10.30;39.70;;;;;;2330461;54;20964;-66
2022/04/05 03:14:57;;;;;;;6.80;3.90;;;10.30;39.70;;;;;;2476323;54;22096;-66
2022/04/05 03:17:23;;;;;;;7.22;4.45;;;10.30;39.80;;;;;;2314675;53;21802;-66
2022/04/05 03:19:50;;;;;;;7.75;4.47;;;10.30;39.70;;;;;;2337429;54;21015;-66
2022/04/05 03:22:20;;;;;;;9.02;4.47;;;10.30;39.70;;;;;;2331041;54;20980;-66
2022/04/05 03:24:50;;;;;;;7.93;3.97;;;10.30;39.70;;;;;;2333377;53;20977;-66
2022/04/05 03:27:17;;;;;;;6.07;4.03;;;10.30;39.80;;;;;;2316864;53;20960;-66
2022/04/05 03:29:43;;;;;;;7.32;4.72;;;10.30;39.80;;;;;;2410401;53;21801;-66
2022/04/05 03:32:11;;;;;;;7.32;4.20;;;10.30;39.90;;;;;;2330791;54;20988;-67
2022/04/05 03:34:39;;;;;;;10.40;4.90;;;10.30;40.00;;;;;;2575688;53;21953;-66
2022/04/05 03:37:05;;;;;;;6.85;4.20;;;10.30;40.10;;;;;;2330146;53;20917;-66
2022/04/05 03:39:32;;;;;;;6.60;4.00;;;10.30;40.20;;;;;;2425314;53;20940;-66
2022/04/05 03:42:00;;;;;;;9.02;4.57;;;10.20;40.10;;;;;;2335652;54;21147;-66
2022/04/05 03:44:27;;;;;;;8.18;4.87;;;10.20;40.30;;;;;;2340291;54;20932;-66
2022/04/05 03:46:56;;;;;;;7.85;4.85;;;10.20;40.40;;;;;;2336693;54;21067;-66
2022/04/05 03:49:22;;;;;;;8.02;4.45;;;10.10;40.40;;;;;;2332871;53;20960;-66
2022/04/05 03:51:50;;;;;;;9.30;4.95;;;10.10;40.60;;;;;;2330581;54;20948;-66
2022/04/05 03:54:16;;;;;;;6.85;4.60;;;10.00;40.80;;;;;;2330874;53;20984;-66
2022/04/05 03:56:43;;;;;;;9.55;4.68;;;10.00;40.90;;;;;;2330360;54;21897;-66
2022/04/05 03:59:16;;;;;;;6.80;4.28;;;10.00;40.90;;;;;;2565365;53;21016;-66
2022/04/05 04:01:42;;;;;;;7.50;4.62;;;9.90;42.00;;;;;;2330610;54;21024;-66
2022/04/05 04:04:12;;;;;;;6.70;3.40;;;9.90;41.90;;;;;;2330378;54;20924;-66
2022/04/05 04:06:38;;;;;;;7.43;4.22;;;9.90;42.00;;;;;;2336287;54;20909;-67
2022/04/05 04:09:05;;;;;;;6.68;4.35;;;9.90;42.20;;;;;;2337377;54;20928;-67
2022/04/05 04:11:34;;;;;;;7.75;4.22;;;9.80;42.20;;;;;;2332815;53;20993;-66
2022/04/05 04:14:02;;;;;;;7.20;4.12;;;9.80;42.30;;;;;;2330354;53;20952;-66
2022/04/05 04:16:29;;;;;;;6.25;3.78;;;9.80;42.40;;;;;;2344227;53;20937;-66
2022/04/05 04:18:56;;;;;;;6.28;4.03;;;9.70;42.40;;;;;;2574339;53;21332;-66
2022/04/05 04:21:23;;;;;;;6.93;3.87;;;9.70;42.50;;;;;;2333955;53;21963;-66
2022/04/05 04:23:49;;;;;;;8.23;4.55;;;9.70;42.40;;;;;;2330189;54;20940;-66
2022/04/05 04:26:18;;;;;;;7.90;4.62;;;9.70;43.00;;;;;;2481841;53;20940;-66
2022/04/05 04:28:45;;;;;;;7.78;4.57;;;9.70;42.60;;;;;;2434674;53;20945;-66
2022/04/05 04:31:14;;;;;;;8.13;4.90;;;9.70;42.50;;;;;;2309947;53;22002;-66
2022/04/05 04:33:41;;;;;;;9.20;4.95;;;9.70;42.60;;;;;;2575036;53;20973;-66
2022/04/05 04:36:08;;;;;;;9.13;5.30;;;9.70;42.60;;;;;;2332133;53;20972;-66
2022/04/05 04:38:34;;;;;;;8.23;4.35;;;9.70;42.70;;;;;;2329693;53;21383;-66
2022/04/05 04:41:01;;;;;;;8.30;5.12;;;9.70;42.70;;;;;;2330302;54;20917;-66
2022/04/05 04:43:28;;;;;;;9.18;4.35;;;9.70;42.80;;;;;;2330201;54;20988;-66
2022/04/05 04:45:57;;;;;;;8.63;4.20;;;9.70;42.80;;;;;;2330286;53;20952;-66
2022/04/05 04:48:24;;;;;;;7.78;4.70;;;9.70;42.80;;;;;;2556430;53;20957;-66
2022/04/05 04:50:50;;;;;;;5.97;4.00;;;9.70;42.80;;;;;;2385517;52;20951;-66
2022/04/05 04:53:16;;;;;;;8.68;4.65;;;9.70;42.90;;;;;;2330354;54;20980;-66
2022/04/05 04:55:43;;;;;;;8.00;4.72;;;9.70;42.90;;;;;;2330342;54;20949;-66
2022/04/05 04:58:28;;;;;;;10.32;4.87;;;9.70;42.90;;;;;;2339860;53;21071;-66
2022/04/05 05:00:57;;;;;;;10.27;5.03;;;9.70;43.00;;;;;;2329878;54;20956;-66
2022/04/05 05:03:24;;;;;;;6.82;4.07;;;9.70;43.60;;;;;;2330305;54;20924;-66
2022/04/05 05:05:50;;;;;;;7.93;4.57;;;9.70;43.10;;;;;;2330191;54;21033;-66
2022/04/05 05:08:17;;;;;;;7.78;4.78;;;9.70;43.00;;;;;;2329996;54;20924;-66
2022/04/05 05:10:44;;;;;;;7.93;4.75;;;9.70;43.10;;;;;;2330455;54;21036;-66
2022/04/05 05:13:10;;;;;;;7.65;4.20;;;9.70;43.10;;;;;;2330367;54;20952;-67
2022/04/05 05:15:36;;;;;;;8.85;5.20;;;9.70;43.10;;;;;;2574760;53;20933;-66
2022/04/05 05:18:02;;;;;;;8.10;5.00;;;9.70;43.10;;;;;;2331237;53;20960;-66
2022/04/05 05:20:29;;;;;;;8.05;5.00;;;9.70;43.20;;;;;;2330327;54;21505;-67
2022/04/05 05:23:02;;;;;;;7.47;4.87;;;9.70;43.20;;;;;;2329509;54;21694;-67
2022/04/05 05:25:30;;;;;;;8.13;5.07;;;9.70;43.20;;;;;;2330902;53;20933;-66
2022/04/05 05:27:56;;;;;;;8.25;5.00;;;9.70;43.20;;;;;;2331368;53;21107;-66
2022/04/05 05:30:23;;;;;;;9.70;4.62;;;9.70;43.20;;;;;;2406612;53;20987;-67
2022/04/05 05:32:50;;;;;;;9.10;4.18;;;9.70;43.20;;;;;;2328433;53;21088;-67
2022/04/05 05:35:18;;;;;;;7.55;4.50;;;9.70;43.20;;;;;;2322421;53;20928;-66
2022/04/05 05:37:44;;;;;;;7.15;4.03;;;9.70;43.20;;;;;;2311844;54;21996;-67
2022/04/05 05:40:13;;;;;;;6.80;4.30;;;9.70;43.10;;;;;;2329121;53;21024;-66
2022/04/05 05:43:02;;;;;;;8.57;4.50;;;9.70;43.10;;;;;;2542701;53;20995;-69
2022/04/05 05:45:28;;;;;;;9.32;5.05;;;9.70;43.20;;;;;;2328783;53;20940;-65
2022/04/05 05:47:55;;;;;;;9.77;5.25;;;9.70;43.10;;;;;;2330430;54;21368;-66
2022/04/05 05:50:21;;;;;;;8.32;5.18;;;9.80;43.30;;;;;;2330124;54;20944;-67
2022/04/05 05:52:49;;;;;;;8.98;4.57;;;9.80;43.30;;;;;;2537590;53;20960;-66
2022/04/05 05:55:16;;;;;;;8.50;4.55;;;9.80;43.30;;;;;;2330854;54;21511;-66
2022/04/05 05:57:44;;;;;;;7.57;4.65;;;9.80;43.40;;;;;;2575090;53;20936;-66
2022/04/05 06:00:20;;;;;;;8.55;5.00;;;9.80;43.40;;;;;;2575212;53;21161;-66
2022/04/05 06:02:49;;;;;;;7.20;4.07;;;9.80;43.40;;;;;;2414805;54;20944;-66
2022/04/05 06:05:15;;;;;;;7.60;4.57;;;9.80;43.40;;;;;;2330464;54;21107;-66
2022/04/05 06:07:42;;;;;;;9.43;4.85;;;9.80;43.40;;;;;;2332068;53;21135;-66
2022/04/05 06:10:13;;;;;;;8.80;4.65;;;9.80;43.40;;;;;;2333924;53;20928;-66
2022/04/05 06:12:42;;;;;;;7.57;4.60;;;9.80;43.50;;;;;;2333791;53;20999;-66
2022/04/05 06:15:10;;;;;;;7.80;4.25;;;9.80;43.60;;;;;;2334420;53;21028;-66
2022/04/05 06:17:37;;;;;;;7.80;4.15;;;9.80;43.60;;;;;;2330185;53;20928;-66
2022/04/05 06:20:04;;;;;;;7.53;4.35;;;9.80;43.70;;;;;;2575289;53;20945;-66
2022/04/05 06:22:31;;;;;;;7.28;4.40;;;9.80;43.80;;;;;;2331438;53;20929;-65
2022/04/05 06:24:58;;;;;;;7.87;4.35;;;9.80;43.80;;;;;;2338814;53;21044;-66
2022/04/05 06:27:26;;;;;;;8.88;5.03;;;9.80;43.90;;;;;;2325725;53;22018;-66
2022/04/05 06:29:52;;;;;;;10.15;5.70;;;9.80;44.00;;;;;;2562373;52;20981;-66
2022/04/05 06:32:18;;;;;;;9.85;4.62;;;9.80;44.20;;;;;;2333816;53;20925;-66
2022/04/05 06:34:46;;;;;;;8.95;4.80;;;9.80;44.10;;;;;;2330292;54;20940;-66
2022/04/05 06:37:13;;;;;;;7.72;4.82;;;9.70;44.10;;;;;;2330392;54;21888;-66
2022/04/05 06:39:42;;;;;;;7.90;4.65;;;9.80;44.20;;;;;;2330706;54;20936;-66
2022/04/05 06:42:09;;;;;;;9.57;5.50;;;9.70;44.10;;;;;;2330407;54;21090;-66
2022/04/05 06:44:35;;;;;;;8.48;4.53;;;9.80;44.30;;;;;;2330224;54;21481;-66
2022/04/05 06:47:02;;;;;;;9.13;4.93;;;9.80;44.30;;;;;;2523061;53;20968;-66
2022/04/05 06:49:29;;;;;;;8.48;4.43;;;9.80;44.30;;;;;;2330354;53;20993;-66
2022/04/05 06:51:56;;;;;;;8.32;4.78;;;9.80;44.30;;;;;;2314023;54;21210;-66
2022/04/05 06:54:25;;;;;;;8.40;4.45;;;9.80;44.30;;;;;;2338153;53;20976;-66
2022/04/05 06:56:51;;;;;;;9.77;5.25;;;9.80;44.40;;;;;;2328292;52;20972;-66
2022/04/05 06:59:17;;;;;;;7.78;4.40;;;9.80;44.50;;;;;;2326982;53;20980;-66
2022/04/05 07:01:44;;;;;;;8.63;4.57;;;9.80;44.50;;;;;;2329653;53;21003;-66
2022/04/05 07:04:10;;;;;;;8.35;5.15;;;9.80;44.60;;;;;;2331357;53;20955;-66
2022/04/05 07:06:36;;;;;;;7.70;4.30;;;9.80;44.60;;;;;;2337043;53;20989;-66
2022/04/05 07:09:07;;;;;;;7.93;4.20;;;9.80;44.60;;;;;;2327236;53;20968;-66
2022/04/05 07:11:34;;;;;;;8.32;4.60;;;9.80;44.70;;;;;;2322439;53;20948;-66
2022/04/05 07:14:01;;;;;;;7.70;4.32;;;9.80;44.60;;;;;;2333118;53;20993;-65
2022/04/05 07:16:27;;;;;;;9.95;4.62;;;9.80;44.60;;;;;;2330305;53;21479;-66
2022/04/05 07:18:53;;;;;;;7.97;4.47;;;9.80;44.70;;;;;;2330353;54;21781;-66
2022/04/05 07:21:20;;;;;;;8.82;4.87;;;9.80;44.70;;;;;;2333916;53;20973;-66
2022/04/05 07:23:52;;;;;;;7.18;4.43;;;9.80;44.80;;;;;;2331059;53;21905;-66
2022/04/05 07:26:21;;;;;;;8.02;4.65;;;9.90;44.90;;;;;;2457243;53;20968;-66
2022/04/05 07:28:56;;;;;;;8.38;4.43;;;9.80;44.80;;;;;;2325412;53;22074;-66
2022/04/05 07:31:24;;;;;;;6.85;3.83;;;9.80;44.80;;;;;;2322646;53;20994;-66
2022/04/05 07:33:51;;;;;;;7.87;4.78;;;9.90;45.00;;;;;;2330186;54;20933;-66
2022/04/05 07:36:17;;;;;;;10.23;4.60;;;9.90;45.10;;;;;;2367788;53;20981;-66
2022/04/05 07:38:44;;;;;;;8.00;3.53;;;9.90;45.00;;;;;;2330268;54;20964;-66
2022/04/05 07:41:10;;;;;;;7.68;4.28;;;9.90;45.00;;;;;;2330897;54;20984;-67
2022/04/05 07:43:36;;;;;;;7.68;4.15;;;9.90;45.00;;;;;;2338757;53;21024;-66
2022/04/05 07:46:03;;;;;;;7.20;3.85;;;9.90;45.00;;;;;;2379323;52;20961;-66
2022/04/05 07:48:31;;;;;;;8.10;3.95;;;10.00;44.30;;;;;;2337991;53;21080;-66
2022/04/05 07:51:00;;;;;;;7.90;4.60;;;9.90;45.10;;;;;;2322883;53;21020;-66
2022/04/05 07:53:26;;;;;;;9.57;5.28;;;10.00;44.40;;;;;;2331736;53;20929;-66
2022/04/05 07:55:54;;;;;;;7.45;4.30;;;10.00;44.20;;;;;;2335692;53;20960;-66
2022/04/05 07:58:21;;;;;;;8.60;5.00;;;10.00;44.30;;;;;;2318651;53;20948;-66
2022/04/05 08:00:47;;;;;;;9.07;4.75;;;10.00;44.30;;;;;;2464237;53;20951;-66
2022/04/05 08:03:17;;;;;;;12.27;6.95;;;10.00;44.40;;;;;;2338970;53;21043;-66
2022/04/05 08:05:44;;;;;;;11.30;6.57;;;10.00;44.30;;;;;;2568413;53;20909;-66
2022/04/05 08:08:10;;;;;;;9.05;5.25;;;10.00;44.40;;;;;;2330519;54;20936;-66
2022/04/05 08:10:42;;;;;;;7.85;4.37;;;10.00;44.50;;;;;;2333741;53;21115;-66
2022/04/05 08:13:09;;;;;;;8.05;4.80;;;10.00;44.50;;;;;;2311065;54;21547;-66
2022/04/05 08:15:36;;;;;;;8.05;4.18;;;10.00;44.60;;;;;;2335547;53;22078;-66
2022/04/05 08:18:02;;;;;;;7.47;4.22;;;10.00;44.60;;;;;;2330355;53;20949;-66
2022/04/05 08:20:29;;;;;;;7.18;4.57;;;10.00;44.60;;;;;;2322559;53;21980;-66
2022/04/05 08:22:55;;;;;;;7.72;3.85;;;10.00;44.80;;;;;;2330122;53;20940;-66
2022/04/05 08:25:22;;;;;;;7.60;4.47;;;10.00;44.80;;;;;;2330172;54;21043;-66
2022/04/05 08:27:50;;;;;;;6.80;4.30;;;10.00;44.80;;;;;;2330191;53;20945;-66
2022/04/05 08:30:17;;;;;;;7.20;4.32;;;10.00;44.80;;;;;;2333230;53;20976;-66
2022/04/05 08:32:45;;;;;;;6.55;4.05;;;10.10;44.90;;;;;;2339052;53;20980;-66
2022/04/05 08:35:21;;;;;;;7.85;4.22;;;10.10;45.00;;;;;;2331344;54;20944;-66
2022/04/05 08:37:49;;;;;;;8.25;4.43;;;10.10;45.30;;;;;;2330348;54;20956;-66
2022/04/05 08:40:16;;;;;;;7.62;4.47;;;10.10;45.10;;;;;;2331361;53;21267;-66
2022/04/05 08:42:47;;;;;;;7.35;4.10;;;10.10;45.10;;;;;;2331375;53;20936;-66
2022/04/05 08:45:15;;;;;;;10.13;4.07;;;10.10;45.20;;;;;;2337813;53;20961;-66
2022/04/05 08:47:47;;;;;;;7.68;3.92;;;10.20;45.30;;;;;;2471860;53;21012;-66
2022/04/05 08:50:19;;;;;;;13.60;5.00;;;10.20;45.40;;;;;;2317919;53;20947;-66
2022/04/05 08:52:45;;;;;;;6.87;4.00;;;10.20;45.50;;;;;;2328797;53;20992;-66
2022/04/05 08:55:12;;;;;;;7.57;4.35;;;10.20;45.40;;;;;;2400194;53;20949;-66
2022/04/05 08:57:39;;;;;;;7.20;4.47;;;10.30;45.50;;;;;;2330281;54;20936;-66
2022/04/05 09:00:08;;;;;;;6.68;3.67;;;10.30;45.60;;;;;;2329983;54;20949;-66
2022/04/05 09:02:34;;;;;;;6.53;4.30;;;10.30;46.30;;;;;;2330846;54;20932;-67
2022/04/05 09:05:01;;;;;;;8.38;4.50;;;10.40;45.80;;;;;;2333171;53;21494;-66
2022/04/05 09:07:32;;;;;;;8.73;4.60;;;10.40;45.80;;;;;;2457627;53;21048;-66
2022/04/05 09:10:09;;;;;;;9.75;4.85;;;10.40;45.80;;;;;;2333208;53;21993;-66
2022/04/05 09:12:42;;;;;;;9.13;4.78;;;10.40;45.80;;;;;;2333312;54;20928;-66
2022/04/05 09:15:24;;;;;;;8.20;4.80;;;10.50;45.70;;;;;;2330135;53;20988;-66
2022/04/05 09:17:50;;;;;;;9.70;4.90;;;10.50;45.70;;;;;;2333668;53;21020;-66
2022/04/05 09:20:19;;;;;;;8.65;4.30;;;10.60;45.60;;;;;;2330236;53;20924;-66
2022/04/05 09:22:46;;;;;;;7.07;4.12;;;10.60;45.60;;;;;;2336793;54;20941;-66
2022/04/05 09:25:14;;;;;;;7.80;4.87;;;10.70;45.50;;;;;;2341663;53;22029;-66
2022/04/05 09:27:49;;;;;;;9.13;5.32;;;10.70;45.40;;;;;;2574326;53;21051;-66
2022/04/05 09:30:31;;;;;;;9.60;5.15;;;10.70;45.30;;;;;;2331168;54;21036;-66
2022/04/05 09:32:58;;;;;;;7.28;4.68;;;10.70;45.20;;;;;;2574899;53;20944;-66
2022/04/05 09:35:29;;;;;;;8.63;4.72;;;10.80;45.10;;;;;;2431789;53;21016;-66
2022/04/05 09:38:15;;;;;;;8.65;4.55;;;10.90;45.20;;;;;;2330629;54;20991;-66
2022/04/05 09:40:41;;;;;;;7.65;4.20;;;10.90;45.30;;;;;;2330484;54;20924;-67
2022/04/05 09:43:28;;;;;;;7.62;4.75;;;10.90;45.20;;;;;;2330377;54;20936;-66
2022/04/05 09:46:00;;;;;;;9.20;4.95;;;11.00;45.20;;;;;;2334020;54;21930;-66
2022/04/05 09:48:29;;;;;;;8.33;4.77;;;11.00;45.00;;;;;;2330868;53;21256;-66
2022/04/05 09:51:56;;;;;;;8.25;4.32;;;11.10;45.00;;;;;;2333310;53;22007;-67
2022/04/05 09:54:28;;;;;;;8.48;4.72;;;11.10;44.80;;;;;;2342207;53;21060;-66
2022/04/05 09:57:03;;;;;;;7.97;4.72;;;11.20;44.90;;;;;;2330480;54;20965;-66
2022/04/05 09:59:43;;;;;;;8.40;4.60;;;11.20;44.70;;;;;;2330417;54;20940;-66
2022/04/05 10:02:16;;;;;;;8.40;4.68;;;11.30;44.70;;;;;;2336037;53;20956;-66
2022/04/05 10:05:09;;;;;;;9.57;5.05;;;11.30;44.70;;;;;;2328203;53;22069;-66
2022/04/05 10:07:36;;;;;;;9.73;5.12;;;11.30;44.50;;;;;;2575013;53;20917;-66
2022/04/05 10:10:04;;;;;;;10.05;5.40;;;11.40;44.60;;;;;;2333620;53;20968;-66
2022/04/05 10:12:30;;;;;;;7.85;4.68;;;11.40;44.60;;;;;;2330751;53;20969;-66
2022/04/05 10:14:59;;;;;;;7.57;4.45;;;11.40;44.60;;;;;;2456495;53;21119;-66
2022/04/05 10:17:27;;;;;;;9.65;4.37;;;11.40;44.70;;;;;;2330392;54;21460;-66
2022/04/05 10:19:54;;;;;;;8.35;4.87;;;11.50;44.80;;;;;;2330027;53;20956;-66
2022/04/05 10:22:20;;;;;;;10.07;5.57;;;11.50;44.80;;;;;;2333767;53;20956;-67
2022/04/05 10:24:51;;;;;;;10.88;4.70;;;11.50;44.90;;;;;;2573808;53;20944;-66
2022/04/05 10:27:19;;;;;;;9.23;4.45;;;11.60;44.90;;;;;;2333542;54;21519;-66
2022/04/05 10:29:45;;;;;;;8.13;4.03;;;11.60;44.80;;;;;;2330254;53;20940;-66
2022/04/05 10:33:57;;;;;;;8.52;4.57;;;11.70;45.00;;;;;;2336604;53;20977;-66
2022/04/05 10:36:24;;;;;;;7.78;3.92;;;11.70;44.90;;;;;;2330614;54;21079;-66
2022/04/05 10:39:11;;;;;;;9.52;4.78;;;11.80;44.80;;;;;;2332440;53;21017;-66
2022/04/05 10:41:37;;;;;;;7.40;4.35;;;11.90;44.80;;;;;;2318664;53;21051;-67
2022/04/05 10:44:23;;;;;;;6.65;3.97;;;11.90;44.70;;;;;;2330190;53;20949;-66
2022/04/05 10:46:57;;;;;;;6.53;3.83;;;11.90;44.80;;;;;;2332798;53;21728;-66
2022/04/05 10:49:54;;;;;;;10.20;5.00;;;12.00;44.80;;;;;;2330927;53;20940;-66
2022/04/05 10:52:24;;;;;;;6.65;3.62;;;12.00;44.70;;;;;;2332972;54;21052;-66
2022/04/05 10:54:52;;;;;;;7.93;4.07;;;12.00;44.60;;;;;;2328822;53;21864;-66
2022/04/05 10:57:34;;;;;;;9.68;5.32;;;12.00;44.50;;;;;;2330338;54;20960;-66
2022/04/05 11:00:11;;;;;;;10.82;5.80;;;12.00;44.30;;;;;;2333829;53;21012;-67
2022/04/05 11:02:40;;;;;;;12.93;5.90;;;12.10;44.40;;;;;;2573893;53;20988;-66
2022/04/05 11:05:41;;;;;;;9.57;5.50;;;12.10;44.40;;;;;;2329409;53;22004;-66
2022/04/05 11:08:11;;;;;;;;;;;12.10;44.30;;;;;;2489643;53;22013;-66
2022/04/05 11:10:49;;;;;;;9.15;4.78;;;12.10;44.30;;;;;;2330939;53;20074;-66
2022/04/05 11:13:29;;;;;;;15.68;7.18;;;12.20;44.40;;;;;;2328298;53;21104;-66
2022/04/05 11:15:57;;;;;;;18.55;8.68;;;12.20;44.50;;;;;;2332489;53;20933;-66
2022/04/05 11:18:24;;;;;;;11.63;6.78;;;12.30;44.50;;;;;;2330112;53;20949;-66
2022/04/05 11:20:51;;;;;;;10.50;5.75;;;12.30;44.50;;;;;;2330251;54;20917;-67
2022/04/05 11:23:18;;;;;;;10.00;5.15;;;12.30;44.50;;;;;;2330124;54;20948;-66
2022/04/05 11:25:45;;;;;;;8.32;4.65;;;12.40;44.60;;;;;;2329886;54;20991;-66
2022/04/05 11:28:47;;;;;;;7.10;4.57;;;12.40;44.50;;;;;;2329870;53;21022;-67
2022/04/05 11:31:27;;;;;;;8.63;4.75;;;12.50;44.50;;;;;;2330011;54;21008;-66
2022/04/05 11:33:54;;;;;;;9.65;4.43;;;12.50;44.40;;;;;;2331858;53;21991;-66
2022/04/05 11:36:23;;;;;;;7.12;4.05;;;12.50;44.40;;;;;;2333880;53;22027;-67
2022/04/05 11:38:50;;;;;;;9.35;4.18;;;12.60;44.40;;;;;;2310969;55;20960;-68
2022/04/05 11:41:20;;;;;;;10.77;4.60;;;12.60;44.40;;;;;;2331932;53;22103;-66
2022/04/05 11:43:51;;;;;;;6.18;3.80;;;12.70;44.30;;;;;;2480586;53;20936;-66
2022/04/05 11:46:23;;;;;;;6.25;4.03;;;12.80;44.50;;;;;;2547778;53;20975;-66
2022/04/05 11:48:51;;;;;;;6.20;3.75;;;12.80;44.40;;;;;;2310557;55;20976;-67
2022/04/05 11:51:19;;;;;;;6.65;3.70;;;12.80;44.40;;;;;;2547524;53;21017;-66
2022/04/05 11:53:46;;;;;;;8.07;4.10;;;12.90;44.50;;;;;;2330302;54;20969;-66
2022/04/05 11:56:22;;;;;;;7.53;4.10;;;12.90;44.40;;;;;;2330559;54;20972;-66
2022/04/05 11:58:54;;;;;;;6.07;3.92;;;13.00;44.30;;;;;;2310393;55;20925;-67
2022/04/05 12:01:36;;;;;;;6.50;3.83;;;13.00;44.30;;;;;;2374518;53;21013;-66
2022/04/05 12:04:25;;;;;;;8.02;4.45;;;13.00;44.20;;;;;;2336564;53;20921;-66
2022/04/05 12:06:59;;;;;;;6.80;4.00;;;13.10;44.10;;;;;;2339244;53;21084;-66
2022/04/05 12:09:26;;;;;;;7.87;4.47;;;13.10;44.00;;;;;;2335440;53;21085;-67
2022/04/05 12:11:53;;;;;;;6.37;3.78;;;13.10;43.90;;;;;;2335420;53;21959;-66
2022/04/05 12:14:24;;;;;;;7.43;3.60;;;13.10;43.90;;;;;;2335042;53;21309;-66
2022/04/05 12:16:55;;;;;;;8.27;4.62;;;13.20;44.00;;;;;;2319360;54;20929;-66
2022/04/05 12:19:23;;;;;;;10.23;4.40;;;13.20;43.90;;;;;;2335050;53;21028;-66
2022/04/05 12:22:13;;;;;;;7.15;4.20;;;13.20;43.80;;;;;;2341842;53;20997;-66
2022/04/05 12:24:54;;;;;;;8.50;3.72;;;13.20;43.80;;;;;;2580995;52;21682;-66
2022/04/05 12:27:24;;;;;;;9.00;3.42;;;13.30;44.00;;;;;;2335464;53;20960;-66
2022/04/05 12:29:59;;;;;;;6.57;3.65;;;13.30;44.00;;;;;;2340936;53;21081;-66
2022/04/05 12:32:31;;;;;;;6.50;3.80;;;13.30;44.00;;;;;;2559517;52;20929;-66
2022/04/05 12:34:58;;;;;;;7.82;3.85;;;13.30;44.00;;;;;;2315850;53;21990;-66
2022/04/05 12:37:29;;;;;;;8.00;3.67;;;13.30;44.00;;;;;;2338308;53;20944;-66
2022/04/05 12:39:56;;;;;;;8.20;3.83;;;13.30;43.90;;;;;;2335481;53;20960;-66
2022/04/05 12:42:22;;;;;;;6.53;3.58;;;13.40;44.00;;;;;;2334906;53;20949;-67
2022/04/05 12:44:56;;;;;;;6.15;3.70;;;13.40;44.00;;;;;;2411942;52;21999;-67
2022/04/05 12:47:24;;;;;;;8.82;4.10;;;13.30;43.90;;;;;;2328939;53;20964;-66
2022/04/05 12:49:58;;;;;;;6.55;4.15;;;13.50;44.10;;;;;;2335303;53;21123;-66
2022/04/05 12:52:28;;;;;;;6.68;4.15;;;13.50;44.80;;;;;;2579628;52;20937;-66
2022/04/05 12:54:55;;;;;;;6.30;3.72;;;13.50;44.30;;;;;;2337052;53;22042;-67
2022/04/05 12:57:45;;;;;;;7.35;3.80;;;13.50;44.40;;;;;;2317385;53;21004;-66
2022/04/05 13:00:18;;;;;;;5.75;3.22;;;13.50;44.40;;;;;;2339222;53;20996;-67
2022/04/05 13:02:49;;;;;;;5.00;3.15;;;13.60;44.40;;;;;;2331801;53;20945;-66